createdAt,value
2022-10-14T00:00:11.991Z,9.91
2022-10-14T00:05:14.672Z,9.9
2022-10-14T00:10:17.421Z,9.95
2022-10-14T00:15:20.133Z,9.98
2022-10-14T00:20:24.428Z,10.06
2022-10-14T00:25:27.160Z,10
2022-10-14T00:30:29.737Z,9.92
2022-10-14T00:35:32.633Z,9.87
2022-10-14T00:40:35.045Z,9.9
2022-10-14T00:45:37.581Z,9.88
2022-10-14T00:50:40.165Z,9.81
2022-10-14T00:55:42.914Z,9.83
2022-10-14T01:00:45.616Z,9.77
2022-10-14T01:05:48.257Z,9.7
2022-10-14T01:10:50.922Z,9.7
2022-10-14T01:15:53.508Z,9.6
2022-10-14T01:20:56.165Z,9.55
2022-10-14T01:25:58.925Z,9.63
2022-10-14T01:31:01.566Z,9.59
2022-10-14T01:36:04.381Z,9.54
2022-10-14T01:41:06.895Z,9.39
2022-10-14T01:46:09.382Z,9.36
2022-10-14T01:51:12.061Z,9.35
2022-10-14T01:56:14.589Z,9.26
2022-10-14T02:01:17.181Z,9.23
2022-10-14T02:06:20.054Z,9.17
2022-10-14T02:11:22.616Z,9.12
2022-10-14T02:16:25.146Z,9.09
2022-10-14T02:21:27.764Z,9.15
2022-10-14T02:26:30.465Z,9.1
2022-10-14T02:31:38.861Z,9.12
2022-10-14T02:36:41.669Z,9.15
2022-10-14T02:41:44.370Z,9.13
2022-10-14T02:46:47.055Z,9.27
2022-10-14T02:51:49.853Z,9.38
2022-10-14T02:56:52.494Z,9.54
2022-10-14T03:06:58.046Z,9.67
2022-10-14T03:12:00.943Z,9.75
2022-10-14T03:17:03.644Z,9.82
2022-10-14T03:22:06.439Z,9.79
2022-10-14T03:27:09.403Z,9.76
2022-10-14T03:32:11.920Z,9.76
2022-10-14T03:37:15.488Z,9.78
2022-10-14T03:42:18.188Z,9.81
2022-10-14T03:47:23.000Z,9.75
2022-10-14T03:52:25.544Z,9.68
2022-10-14T03:57:28.518Z,9.59
2022-10-14T04:02:30.991Z,9.45
2022-10-14T04:07:36.990Z,9.31
2022-10-14T04:12:40.029Z,9.25
2022-10-14T04:17:45.454Z,9.26
2022-10-14T04:22:48.727Z,9.27
2022-10-14T04:32:54.709Z,9.46
2022-10-14T04:43:00.153Z,9.62
2022-10-14T04:53:05.422Z,9.73
2022-10-14T04:58:07.942Z,9.8
2022-10-14T05:03:10.638Z,9.83
2022-10-14T05:13:16.284Z,9.89
2022-10-14T05:18:19.084Z,9.92
2022-10-14T05:23:21.852Z,9.94
2022-10-14T05:33:27.393Z,10.01
2022-10-14T05:38:30.138Z,10.09
2022-10-14T05:43:33.187Z,10.21
2022-10-14T05:48:35.682Z,10.31
2022-10-14T05:53:38.219Z,10.46
2022-10-14T05:58:40.942Z,10.56
2022-10-14T06:03:43.458Z,10.62
2022-10-14T06:08:46.009Z,10.75
2022-10-14T06:13:48.606Z,10.81
2022-10-14T06:18:54.360Z,10.99
2022-10-14T06:23:54.328Z,11.04
2022-10-14T06:28:57.243Z,11.13
2022-10-14T06:34:00.053Z,11.17
2022-10-14T06:39:02.789Z,11.27
2022-10-14T06:44:05.076Z,11.48
2022-10-14T06:49:10.634Z,11.58
2022-10-14T06:54:13.345Z,11.74
2022-10-14T06:59:15.975Z,11.97
2022-10-14T07:04:18.821Z,11.98
2022-10-14T07:14:24.188Z,12.19
2022-10-14T07:19:26.889Z,12.19
2022-10-14T07:24:29.654Z,12.36
2022-10-14T07:34:35.254Z,12.47
2022-10-14T07:39:37.849Z,12.71
2022-10-14T07:44:40.701Z,13.03
2022-10-14T07:49:43.607Z,13.32
2022-10-14T07:54:47.436Z,13.46
2022-10-14T07:59:50.071Z,13.54
2022-10-14T08:04:53.072Z,13.51
2022-10-14T08:09:55.588Z,13.82
2022-10-14T08:14:58.473Z,14.61
2022-10-14T08:20:01.292Z,15.49
2022-10-14T08:25:04.167Z,15.81
2022-10-14T08:30:08.666Z,16.52
2022-10-14T08:35:09.933Z,17.22
2022-10-14T08:40:15.508Z,18.23
2022-10-14T08:45:18.475Z,18.53
2022-10-14T08:50:21.328Z,18.13
2022-10-14T09:00:26.671Z,18.76
2022-10-14T09:05:29.466Z,18.56
2022-10-14T09:10:32.044Z,18.28
2022-10-14T09:15:34.525Z,18.46
2022-10-14T09:20:37.237Z,18.53
2022-10-14T09:25:39.950Z,18.57
2022-10-14T09:30:42.717Z,18.95
2022-10-14T09:35:45.596Z,19.21
2022-10-14T09:40:48.009Z,19.12
2022-10-14T09:45:50.701Z,18.96
2022-10-14T09:50:53.394Z,18.45
2022-10-14T09:55:56.031Z,18.39
2022-10-14T10:00:58.652Z,19.02
2022-10-14T10:06:01.417Z,19.26
2022-10-14T10:11:06.400Z,19.26
2022-10-14T10:16:06.753Z,18.79
2022-10-14T10:26:11.980Z,19.08
2022-10-14T10:31:14.603Z,19.03
2022-10-14T10:36:17.222Z,18.95
2022-10-14T10:41:19.817Z,18.87
2022-10-14T10:46:22.379Z,18.97
2022-10-14T10:51:25.415Z,19.15
2022-10-14T10:56:27.970Z,19.08
2022-10-14T11:01:30.597Z,18.93
2022-10-14T11:06:33.062Z,19.21
2022-10-14T11:11:35.805Z,19.61
2022-10-14T11:16:38.594Z,19.66
2022-10-14T11:21:41.394Z,19.49
2022-10-14T11:26:43.847Z,20.09
2022-10-14T11:31:46.888Z,20.55
2022-10-14T11:36:49.878Z,20.18
2022-10-14T11:41:52.417Z,19.85
2022-10-14T11:46:54.916Z,20.23
2022-10-14T11:51:57.887Z,20.53
2022-10-14T11:57:00.540Z,20.17
2022-10-14T12:02:03.154Z,19.8
2022-10-14T12:07:05.928Z,19.49
2022-10-14T12:12:08.855Z,19.47
2022-10-14T12:17:12.552Z,19.2
2022-10-14T12:22:14.493Z,19.29
2022-10-14T12:27:17.058Z,18.76
2022-10-14T12:32:21.094Z,18.81
2022-10-14T12:37:25.758Z,19.45
2022-10-14T12:42:26.300Z,19.35
2022-10-14T12:47:29.880Z,19.23
2022-10-14T12:52:32.863Z,20.18
2022-10-14T12:57:37.300Z,20.62
2022-10-14T13:02:42.245Z,20.44
2022-10-14T13:07:46.107Z,20.43
2022-10-14T13:12:47.991Z,20.12
2022-10-14T13:17:50.976Z,19.78
2022-10-14T13:22:54.545Z,19.52
2022-10-14T13:27:57.769Z,19.76
2022-10-14T13:33:01.403Z,19.82
2022-10-14T13:38:04.147Z,19.76
2022-10-14T13:43:06.931Z,19.75
2022-10-14T13:48:09.625Z,19.97
2022-10-14T13:53:12.202Z,19.79
2022-10-14T13:58:15.063Z,19.71
2022-10-14T14:03:17.676Z,19.45
2022-10-14T14:08:37.142Z,19.4
2022-10-14T14:13:22.806Z,19.15
2022-10-14T14:18:27.937Z,18.82
2022-10-14T14:23:28.338Z,18.92
2022-10-14T14:28:30.918Z,18.7
2022-10-14T14:33:33.648Z,18.74
2022-10-14T14:38:36.419Z,18.85
2022-10-14T14:43:43.426Z,18.86
2022-10-14T14:48:41.878Z,18.79
2022-10-14T14:53:44.567Z,18.56
2022-10-14T14:58:47.269Z,18.26
2022-10-14T15:04:11.838Z,17.91
2022-10-14T15:08:52.654Z,17.7
2022-10-14T15:13:55.266Z,17.5
2022-10-14T15:18:58.144Z,17.29
2022-10-14T15:24:00.848Z,17.23
2022-10-14T15:29:03.334Z,17.31
2022-10-14T15:34:05.814Z,17.22
2022-10-14T15:39:08.648Z,17.17
2022-10-14T15:44:11.503Z,17.06
2022-10-14T15:49:14.138Z,17.02
2022-10-14T15:54:16.904Z,16.94
2022-10-14T15:59:19.514Z,16.81
2022-10-14T16:04:22.261Z,16.66
2022-10-14T16:09:25.129Z,16.46
2022-10-14T16:14:27.768Z,16.37
2022-10-14T16:19:30.343Z,16.18
2022-10-14T16:24:33.138Z,16.08
2022-10-14T16:29:35.729Z,16.03
2022-10-14T16:34:38.429Z,15.94
2022-10-14T16:39:41.160Z,15.99
2022-10-14T16:44:44.002Z,16.01
2022-10-14T16:49:46.628Z,16.01
2022-10-14T16:54:49.341Z,15.95
2022-10-14T16:59:52.074Z,15.92
2022-10-14T17:04:55.107Z,15.9
2022-10-14T17:09:57.961Z,15.88
2022-10-14T17:15:00.397Z,15.9
2022-10-14T17:20:03.312Z,15.91
2022-10-14T17:25:06.048Z,15.98
2022-10-14T17:30:08.797Z,15.92
2022-10-14T17:35:14.262Z,15.93
2022-10-14T17:40:14.199Z,15.9
2022-10-14T17:45:16.899Z,15.77
2022-10-14T17:50:19.291Z,15.78
2022-10-14T17:55:21.905Z,15.71
2022-10-14T18:00:24.480Z,15.64
2022-10-14T18:05:27.060Z,15.6
2022-10-14T18:10:29.796Z,15.52
2022-10-14T18:15:32.571Z,15.52
2022-10-14T18:20:35.178Z,15.43
2022-10-14T18:25:37.919Z,15.32
2022-10-14T18:30:40.648Z,15.29
2022-10-14T18:40:45.892Z,15.12
2022-10-14T18:45:48.476Z,15.13
2022-10-14T18:50:51.044Z,15.09
2022-10-14T18:55:55.724Z,14.93
2022-10-14T19:00:56.182Z,14.9
2022-10-14T19:05:58.875Z,14.78
2022-10-14T19:21:06.946Z,14.88
2022-10-14T19:26:09.861Z,14.97
2022-10-14T19:31:12.582Z,14.8
2022-10-14T19:36:15.354Z,14.76
2022-10-14T19:41:17.640Z,14.81
2022-10-14T19:46:20.488Z,14.77
2022-10-14T19:51:23.253Z,14.77
2022-10-14T19:56:26.025Z,14.76
2022-10-14T20:01:28.738Z,14.76
2022-10-14T20:06:31.489Z,14.74
2022-10-14T20:11:34.226Z,14.77
2022-10-14T20:16:36.817Z,14.81
2022-10-14T20:21:39.753Z,14.82
2022-10-14T20:26:42.506Z,14.85
2022-10-14T20:31:45.343Z,14.8
2022-10-14T20:36:48.040Z,14.83
2022-10-14T20:41:50.917Z,14.84
2022-10-14T20:46:53.805Z,14.82
2022-10-14T20:51:56.574Z,14.8
2022-10-14T20:56:59.280Z,14.86
2022-10-14T21:02:02.334Z,14.84
2022-10-14T21:07:05.040Z,14.85
2022-10-14T21:12:07.992Z,14.81
2022-10-14T21:17:10.557Z,14.79
2022-10-14T21:22:13.296Z,14.77
2022-10-14T21:32:19.139Z,14.81
2022-10-14T21:37:21.785Z,14.85
2022-10-14T21:42:24.717Z,14.89
2022-10-14T21:47:27.441Z,14.9
2022-10-14T21:52:30.163Z,14.86
2022-10-14T21:57:32.803Z,14.83
2022-10-14T22:02:35.528Z,14.81
2022-10-14T22:07:38.263Z,14.81
2022-10-14T22:12:40.736Z,14.78
2022-10-14T22:17:43.531Z,14.76
2022-10-14T22:22:49.361Z,14.74
2022-10-14T22:27:52.162Z,14.71
2022-10-14T22:32:54.897Z,14.62
2022-10-14T22:37:57.588Z,14.54
2022-10-14T22:43:00.271Z,14.5
2022-10-14T22:48:02.766Z,14.5
2022-10-14T22:53:05.470Z,14.49
2022-10-14T22:58:07.983Z,14.49
2022-10-14T23:08:13.481Z,14.42
2022-10-14T23:13:16.143Z,14.44
2022-10-14T23:18:19.069Z,14.41
2022-10-14T23:23:21.778Z,14.47
2022-10-14T23:28:24.482Z,14.46
2022-10-14T23:33:27.256Z,14.44
2022-10-14T23:38:30.005Z,14.5
2022-10-14T23:43:32.422Z,14.46
2022-10-14T23:48:35.142Z,14.5
2022-10-14T23:53:37.961Z,14.52
2022-10-14T23:58:40.630Z,14.54
